sensor_id;sensor_type;location;lat;lon;timestamp;temperature;humidity
13982;DHT22;7065;50.880;5.502;2023-07-20T00:02:24;15.50;99.90
13982;DHT22;7065;50.880;5.502;2023-07-20T00:04:50;15.50;99.90
13982;DHT22;7065;50.880;5.502;2023-07-20T00:07:15;15.50;99.90
13982;DHT22;7065;50.880;5.502;2023-07-20T00:09:41;15.50;99.90
13982;DHT22;7065;50.880;5.502;2023-07-20T00:12:07;15.40;99.90
13982;DHT22;7065;50.880;5.502;2023-07-20T00:14:33;15.40;99.90
13982;DHT22;7065;50.880;5.502;2023-07-20T00:16:59;15.40;99.90
13982;DHT22;7065;50.880;5.502;2023-07-20T00:19:26;15.40;99.90
13982;DHT22;7065;50.880;5.502;2023-07-20T00:21:53;15.40;99.90
13982;DHT22;7065;50.880;5.502;2023-07-20T00:24:19;15.40;99.90
13982;DHT22;7065;50.880;5.502;2023-07-20T00:26:44;15.30;99.90
13982;DHT22;7065;50.880;5.502;2023-07-20T00:29:10;15.30;99.90
13982;DHT22;7065;50.880;5.502;2023-07-20T00:31:36;15.30;99.90
13982;DHT22;7065;50.880;5.502;2023-07-20T00:34:06;15.20;99.90
13982;DHT22;7065;50.880;5.502;2023-07-20T00:36:32;15.20;99.90
13982;DHT22;7065;50.880;5.502;2023-07-20T00:38:58;15.10;99.90
13982;DHT22;7065;50.880;5.502;2023-07-20T00:41:24;15.10;99.90
13982;DHT22;7065;50.880;5.502;2023-07-20T00:43:50;15.10;99.90
13982;DHT22;7065;50.880;5.502;2023-07-20T00:46:16;15.00;99.90
13982;DHT22;7065;50.880;5.502;2023-07-20T00:48:42;15.00;99.90
13982;DHT22;7065;50.880;5.502;2023-07-20T00:51:08;15.00;99.90
13982;DHT22;7065;50.880;5.502;2023-07-20T00:53:34;15.00;99.90
13982;DHT22;7065;50.880;5.502;2023-07-20T00:56:00;15.00;99.90
13982;DHT22;7065;50.880;5.502;2023-07-20T00:58:27;15.00;99.90
13982;DHT22;7065;50.880;5.502;2023-07-20T01:00:53;15.00;99.90
13982;DHT22;7065;50.880;5.502;2023-07-20T01:03:19;15.00;99.90
13982;DHT22;7065;50.880;5.502;2023-07-20T01:11:19;15.00;99.90
13982;DHT22;7065;50.880;5.502;2023-07-20T01:13:47;15.00;99.90
13982;DHT22;7065;50.880;5.502;2023-07-20T01:16:14;15.00;99.90
13982;DHT22;7065;50.880;5.502;2023-07-20T01:18:39;15.00;99.90
13982;DHT22;7065;50.880;5.502;2023-07-20T01:21:09;15.00;99.90
13982;DHT22;7065;50.880;5.502;2023-07-20T01:31:56;15.00;99.90
13982;DHT22;7065;50.880;5.502;2023-07-20T01:34:23;15.00;99.90
13982;DHT22;7065;50.880;5.502;2023-07-20T01:36:50;15.00;99.90
13982;DHT22;7065;50.880;5.502;2023-07-20T01:39:19;15.00;99.90
13982;DHT22;7065;50.880;5.502;2023-07-20T01:41:46;15.00;99.90
13982;DHT22;7065;50.880;5.502;2023-07-20T01:44:13;15.00;99.90
13982;DHT22;7065;50.880;5.502;2023-07-20T01:46:38;15.00;99.90
13982;DHT22;7065;50.880;5.502;2023-07-20T01:49:04;15.00;99.90
13982;DHT22;7065;50.880;5.502;2023-07-20T01:51:30;15.00;99.90
13982;DHT22;7065;50.880;5.502;2023-07-20T01:53:55;15.00;99.90
13982;DHT22;7065;50.880;5.502;2023-07-20T01:56:21;15.00;99.90
13982;DHT22;7065;50.880;5.502;2023-07-20T01:58:47;15.00;99.90
13982;DHT22;7065;50.880;5.502;2023-07-20T02:01:12;15.00;99.90
13982;DHT22;7065;50.880;5.502;2023-07-20T02:03:38;15.00;99.90
13982;DHT22;7065;50.880;5.502;2023-07-20T02:06:03;14.90;99.90
13982;DHT22;7065;50.880;5.502;2023-07-20T02:08:29;14.90;99.90
13982;DHT22;7065;50.880;5.502;2023-07-20T02:10:55;14.90;99.90
13982;DHT22;7065;50.880;5.502;2023-07-20T02:13:20;14.90;99.90
13982;DHT22;7065;50.880;5.502;2023-07-20T02:15:46;14.90;99.90
13982;DHT22;7065;50.880;5.502;2023-07-20T02:18:15;14.80;99.90
13982;DHT22;7065;50.880;5.502;2023-07-20T02:20:41;14.80;99.90
13982;DHT22;7065;50.880;5.502;2023-07-20T02:23:07;14.80;99.90
13982;DHT22;7065;50.880;5.502;2023-07-20T02:25:33;14.70;99.90
13982;DHT22;7065;50.880;5.502;2023-07-20T02:27:59;14.70;99.90
13982;DHT22;7065;50.880;5.502;2023-07-20T02:30:24;14.60;99.90
13982;DHT22;7065;50.880;5.502;2023-07-20T02:32:50;14.60;99.90
13982;DHT22;7065;50.880;5.502;2023-07-20T02:35:16;14.60;99.90
13982;DHT22;7065;50.880;5.502;2023-07-20T02:37:42;14.50;99.90
13982;DHT22;7065;50.880;5.502;2023-07-20T02:40:08;14.50;99.90
13982;DHT22;7065;50.880;5.502;2023-07-20T02:42:34;14.50;99.90
13982;DHT22;7065;50.880;5.502;2023-07-20T02:45:04;14.50;99.90
13982;DHT22;7065;50.880;5.502;2023-07-20T02:47:30;14.40;99.90
13982;DHT22;7065;50.880;5.502;2023-07-20T02:49:57;14.50;99.90
13982;DHT22;7065;50.880;5.502;2023-07-20T02:52:22;14.40;99.90
13982;DHT22;7065;50.880;5.502;2023-07-20T02:54:49;14.50;99.90
13982;DHT22;7065;50.880;5.502;2023-07-20T02:57:15;14.50;99.90
13982;DHT22;7065;50.880;5.502;2023-07-20T02:59:40;14.50;99.90
13982;DHT22;7065;50.880;5.502;2023-07-20T03:02:06;14.50;99.90
13982;DHT22;7065;50.880;5.502;2023-07-20T03:04:35;14.60;99.90
13982;DHT22;7065;50.880;5.502;2023-07-20T03:07:03;14.60;99.90
13982;DHT22;7065;50.880;5.502;2023-07-20T03:09:29;14.60;99.90
13982;DHT22;7065;50.880;5.502;2023-07-20T03:11:55;14.60;99.90
13982;DHT22;7065;50.880;5.502;2023-07-20T03:14:20;14.60;99.90
13982;DHT22;7065;50.880;5.502;2023-07-20T03:16:47;14.60;99.90
13982;DHT22;7065;50.880;5.502;2023-07-20T03:19:12;14.60;99.90
13982;DHT22;7065;50.880;5.502;2023-07-20T03:21:38;14.60;99.90
13982;DHT22;7065;50.880;5.502;2023-07-20T03:24:07;14.70;99.90
13982;DHT22;7065;50.880;5.502;2023-07-20T03:26:34;14.70;99.90
13982;DHT22;7065;50.880;5.502;2023-07-20T03:29:00;14.70;99.90
13982;DHT22;7065;50.880;5.502;2023-07-20T03:31:25;14.70;99.90
13982;DHT22;7065;50.880;5.502;2023-07-20T03:33:52;14.70;99.90
13982;DHT22;7065;50.880;5.502;2023-07-20T03:36:18;14.80;99.90
13982;DHT22;7065;50.880;5.502;2023-07-20T03:38:43;14.80;99.90
13982;DHT22;7065;50.880;5.502;2023-07-20T03:41:09;14.70;99.90
13982;DHT22;7065;50.880;5.502;2023-07-20T03:43:34;14.70;99.90
13982;DHT22;7065;50.880;5.502;2023-07-20T03:46:00;14.80;99.90
13982;DHT22;7065;50.880;5.502;2023-07-20T03:48:26;14.80;99.90
13982;DHT22;7065;50.880;5.502;2023-07-20T03:50:53;14.80;99.90
13982;DHT22;7065;50.880;5.502;2023-07-20T03:53:19;14.80;99.90
13982;DHT22;7065;50.880;5.502;2023-07-20T03:55:46;14.80;99.90
13982;DHT22;7065;50.880;5.502;2023-07-20T03:58:13;14.80;99.90
13982;DHT22;7065;50.880;5.502;2023-07-20T04:00:39;14.80;99.90
13982;DHT22;7065;50.880;5.502;2023-07-20T04:03:05;14.80;99.90
13982;DHT22;7065;50.880;5.502;2023-07-20T04:05:31;14.80;99.90
13982;DHT22;7065;50.880;5.502;2023-07-20T04:07:57;14.80;99.90
13982;DHT22;7065;50.880;5.502;2023-07-20T04:10:22;14.80;99.90
13982;DHT22;7065;50.880;5.502;2023-07-20T04:12:48;14.80;99.90
13982;DHT22;7065;50.880;5.502;2023-07-20T04:15:14;14.80;99.90
13982;DHT22;7065;50.880;5.502;2023-07-20T04:17:40;14.90;99.90
13982;DHT22;7065;50.880;5.502;2023-07-20T04:20:07;14.90;99.90
13982;DHT22;7065;50.880;5.502;2023-07-20T04:22:33;14.90;99.90
13982;DHT22;7065;50.880;5.502;2023-07-20T04:24:59;14.90;99.90
13982;DHT22;7065;50.880;5.502;2023-07-20T04:27:24;14.90;99.90
13982;DHT22;7065;50.880;5.502;2023-07-20T04:29:50;14.90;99.90
13982;DHT22;7065;50.880;5.502;2023-07-20T04:32:16;14.90;99.90
13982;DHT22;7065;50.880;5.502;2023-07-20T04:34:42;14.90;99.90
13982;DHT22;7065;50.880;5.502;2023-07-20T04:37:08;14.90;99.90
13982;DHT22;7065;50.880;5.502;2023-07-20T04:39:34;14.90;99.90
13982;DHT22;7065;50.880;5.502;2023-07-20T04:41:59;14.90;99.90
13982;DHT22;7065;50.880;5.502;2023-07-20T04:44:25;14.90;99.90
13982;DHT22;7065;50.880;5.502;2023-07-20T04:46:51;14.90;99.90
13982;DHT22;7065;50.880;5.502;2023-07-20T04:49:16;14.90;99.90
13982;DHT22;7065;50.880;5.502;2023-07-20T04:51:42;14.90;99.90
13982;DHT22;7065;50.880;5.502;2023-07-20T04:54:08;14.90;99.90
13982;DHT22;7065;50.880;5.502;2023-07-20T04:56:33;14.90;99.90
13982;DHT22;7065;50.880;5.502;2023-07-20T04:58:59;14.90;99.90
13982;DHT22;7065;50.880;5.502;2023-07-20T05:01:25;14.90;99.90
13982;DHT22;7065;50.880;5.502;2023-07-20T05:03:52;14.90;99.90
13982;DHT22;7065;50.880;5.502;2023-07-20T05:06:18;15.00;99.90
13982;DHT22;7065;50.880;5.502;2023-07-20T05:08:44;15.00;99.90
13982;DHT22;7065;50.880;5.502;2023-07-20T05:11:10;15.00;99.90
13982;DHT22;7065;50.880;5.502;2023-07-20T05:13:36;15.10;99.90
13982;DHT22;7065;50.880;5.502;2023-07-20T05:16:02;15.20;99.90
13982;DHT22;7065;50.880;5.502;2023-07-20T05:18:28;15.20;99.90
13982;DHT22;7065;50.880;5.502;2023-07-20T05:20:53;15.20;99.90
13982;DHT22;7065;50.880;5.502;2023-07-20T05:23:21;15.30;99.90
13982;DHT22;7065;50.880;5.502;2023-07-20T05:25:47;15.30;99.90
13982;DHT22;7065;50.880;5.502;2023-07-20T05:28:13;15.40;99.90
13982;DHT22;7065;50.880;5.502;2023-07-20T05:30:40;15.40;99.90
13982;DHT22;7065;50.880;5.502;2023-07-20T05:33:05;15.40;99.90
13982;DHT22;7065;50.880;5.502;2023-07-20T05:35:31;15.50;99.90
13982;DHT22;7065;50.880;5.502;2023-07-20T05:37:57;15.50;99.90
13982;DHT22;7065;50.880;5.502;2023-07-20T05:40:22;15.50;99.90
13982;DHT22;7065;50.880;5.502;2023-07-20T05:42:48;15.50;99.90
13982;DHT22;7065;50.880;5.502;2023-07-20T05:45:17;15.40;99.90
13982;DHT22;7065;50.880;5.502;2023-07-20T05:47:43;15.50;99.90
13982;DHT22;7065;50.880;5.502;2023-07-20T05:50:09;15.50;99.90
13982;DHT22;7065;50.880;5.502;2023-07-20T05:52:35;15.60;99.90
13982;DHT22;7065;50.880;5.502;2023-07-20T05:55:01;15.70;99.90
13982;DHT22;7065;50.880;5.502;2023-07-20T05:57:27;15.90;99.90
13982;DHT22;7065;50.880;5.502;2023-07-20T05:59:52;16.00;99.90
13982;DHT22;7065;50.880;5.502;2023-07-20T06:02:18;16.10;99.90
13982;DHT22;7065;50.880;5.502;2023-07-20T06:04:45;16.10;99.90
13982;DHT22;7065;50.880;5.502;2023-07-20T06:07:10;16.10;99.90
13982;DHT22;7065;50.880;5.502;2023-07-20T06:09:36;16.20;99.90
13982;DHT22;7065;50.880;5.502;2023-07-20T06:12:02;16.20;99.90
13982;DHT22;7065;50.880;5.502;2023-07-20T06:14:28;16.20;99.90
13982;DHT22;7065;50.880;5.502;2023-07-20T06:16:54;16.20;99.90
13982;DHT22;7065;50.880;5.502;2023-07-20T06:19:19;16.30;99.90
13982;DHT22;7065;50.880;5.502;2023-07-20T06:21:45;16.40;99.90
13982;DHT22;7065;50.880;5.502;2023-07-20T06:24:10;16.50;99.90
13982;DHT22;7065;50.880;5.502;2023-07-20T06:26:36;16.50;99.90
13982;DHT22;7065;50.880;5.502;2023-07-20T06:29:07;16.50;99.90
13982;DHT22;7065;50.880;5.502;2023-07-20T06:31:34;16.60;99.90
13982;DHT22;7065;50.880;5.502;2023-07-20T06:34:00;16.60;99.90
13982;DHT22;7065;50.880;5.502;2023-07-20T06:36:27;16.70;99.90
13982;DHT22;7065;50.880;5.502;2023-07-20T06:38:53;16.70;99.90
13982;DHT22;7065;50.880;5.502;2023-07-20T06:41:19;16.70;99.90
13982;DHT22;7065;50.880;5.502;2023-07-20T06:43:45;16.80;99.90
13982;DHT22;7065;50.880;5.502;2023-07-20T06:46:11;16.90;99.90
13982;DHT22;7065;50.880;5.502;2023-07-20T06:48:37;17.00;99.90
13982;DHT22;7065;50.880;5.502;2023-07-20T06:51:02;16.90;99.90
13982;DHT22;7065;50.880;5.502;2023-07-20T06:53:30;17.00;99.90
13982;DHT22;7065;50.880;5.502;2023-07-20T06:55:55;17.10;99.90
13982;DHT22;7065;50.880;5.502;2023-07-20T06:58:24;17.10;99.90
13982;DHT22;7065;50.880;5.502;2023-07-20T07:00:50;17.10;99.90
13982;DHT22;7065;50.880;5.502;2023-07-20T07:03:16;17.20;99.90
13982;DHT22;7065;50.880;5.502;2023-07-20T07:05:42;17.10;99.90
13982;DHT22;7065;50.880;5.502;2023-07-20T07:08:08;17.20;99.90
13982;DHT22;7065;50.880;5.502;2023-07-20T07:10:36;17.30;99.90
13982;DHT22;7065;50.880;5.502;2023-07-20T07:13:02;17.30;99.90
13982;DHT22;7065;50.880;5.502;2023-07-20T07:15:27;17.40;99.90
13982;DHT22;7065;50.880;5.502;2023-07-20T07:17:53;17.50;99.90
13982;DHT22;7065;50.880;5.502;2023-07-20T07:20:19;17.50;99.90
13982;DHT22;7065;50.880;5.502;2023-07-20T07:22:45;17.70;99.90
13982;DHT22;7065;50.880;5.502;2023-07-20T07:25:12;17.80;99.90
13982;DHT22;7065;50.880;5.502;2023-07-20T07:27:38;17.80;99.90
13982;DHT22;7065;50.880;5.502;2023-07-20T07:30:04;18.00;99.90
13982;DHT22;7065;50.880;5.502;2023-07-20T07:32:31;18.00;99.90
13982;DHT22;7065;50.880;5.502;2023-07-20T07:34:56;18.20;99.90
13982;DHT22;7065;50.880;5.502;2023-07-20T07:37:24;18.30;99.90
13982;DHT22;7065;50.880;5.502;2023-07-20T07:39:50;18.30;99.90
13982;DHT22;7065;50.880;5.502;2023-07-20T07:42:15;18.10;99.90
13982;DHT22;7065;50.880;5.502;2023-07-20T07:44:41;18.00;99.90
13982;DHT22;7065;50.880;5.502;2023-07-20T07:47:07;18.00;99.90
13982;DHT22;7065;50.880;5.502;2023-07-20T07:49:32;17.90;99.90
13982;DHT22;7065;50.880;5.502;2023-07-20T07:51:58;18.00;99.90
13982;DHT22;7065;50.880;5.502;2023-07-20T07:54:24;18.00;99.90
13982;DHT22;7065;50.880;5.502;2023-07-20T07:56:51;18.00;99.90
13982;DHT22;7065;50.880;5.502;2023-07-20T07:59:17;18.10;99.90
13982;DHT22;7065;50.880;5.502;2023-07-20T08:01:42;18.20;99.90
13982;DHT22;7065;50.880;5.502;2023-07-20T08:04:08;18.30;99.90
13982;DHT22;7065;50.880;5.502;2023-07-20T08:06:34;18.40;99.90
13982;DHT22;7065;50.880;5.502;2023-07-20T08:08:59;18.50;99.90
13982;DHT22;7065;50.880;5.502;2023-07-20T08:11:25;18.50;99.90
13982;DHT22;7065;50.880;5.502;2023-07-20T08:13:51;18.60;99.90
13982;DHT22;7065;50.880;5.502;2023-07-20T08:16:16;18.60;99.90
13982;DHT22;7065;50.880;5.502;2023-07-20T08:18:43;18.80;99.90
13982;DHT22;7065;50.880;5.502;2023-07-20T08:21:10;18.80;99.90
13982;DHT22;7065;50.880;5.502;2023-07-20T08:23:36;19.00;99.90
13982;DHT22;7065;50.880;5.502;2023-07-20T08:26:02;19.00;99.90
13982;DHT22;7065;50.880;5.502;2023-07-20T08:28:27;19.00;99.90
13982;DHT22;7065;50.880;5.502;2023-07-20T08:30:54;19.00;99.90
13982;DHT22;7065;50.880;5.502;2023-07-20T08:33:20;19.00;99.90
13982;DHT22;7065;50.880;5.502;2023-07-20T08:35:46;19.00;99.90
13982;DHT22;7065;50.880;5.502;2023-07-20T08:38:13;18.90;99.90
13982;DHT22;7065;50.880;5.502;2023-07-20T08:40:45;19.00;99.90
13982;DHT22;7065;50.880;5.502;2023-07-20T08:43:13;19.10;99.90
13982;DHT22;7065;50.880;5.502;2023-07-20T08:45:40;19.10;99.90
13982;DHT22;7065;50.880;5.502;2023-07-20T08:48:07;19.10;99.90
13982;DHT22;7065;50.880;5.502;2023-07-20T08:50:34;19.10;99.90
13982;DHT22;7065;50.880;5.502;2023-07-20T08:53:00;19.20;99.90
13982;DHT22;7065;50.880;5.502;2023-07-20T08:55:27;19.30;99.90
13982;DHT22;7065;50.880;5.502;2023-07-20T08:57:57;19.30;99.90
13982;DHT22;7065;50.880;5.502;2023-07-20T09:00:23;19.40;99.90
13982;DHT22;7065;50.880;5.502;2023-07-20T09:02:51;19.50;99.90
13982;DHT22;7065;50.880;5.502;2023-07-20T09:05:20;19.30;99.90
13982;DHT22;7065;50.880;5.502;2023-07-20T09:07:46;19.40;99.90
13982;DHT22;7065;50.880;5.502;2023-07-20T09:10:12;19.30;99.90
13982;DHT22;7065;50.880;5.502;2023-07-20T09:12:39;19.10;99.90
13982;DHT22;7065;50.880;5.502;2023-07-20T09:15:07;19.10;99.90
13982;DHT22;7065;50.880;5.502;2023-07-20T09:17:33;19.10;99.90
13982;DHT22;7065;50.880;5.502;2023-07-20T09:20:02;19.20;99.90
13982;DHT22;7065;50.880;5.502;2023-07-20T09:22:33;19.20;99.90
13982;DHT22;7065;50.880;5.502;2023-07-20T09:24:59;19.20;99.90
13982;DHT22;7065;50.880;5.502;2023-07-20T09:27:44;19.40;99.90
13982;DHT22;7065;50.880;5.502;2023-07-20T09:30:11;19.40;99.90
13982;DHT22;7065;50.880;5.502;2023-07-20T09:32:44;19.40;99.90
13982;DHT22;7065;50.880;5.502;2023-07-20T09:35:14;19.60;99.90
13982;DHT22;7065;50.880;5.502;2023-07-20T09:38:03;19.60;99.90
13982;DHT22;7065;50.880;5.502;2023-07-20T09:40:29;19.80;99.90
13982;DHT22;7065;50.880;5.502;2023-07-20T09:42:55;19.90;99.90
13982;DHT22;7065;50.880;5.502;2023-07-20T09:45:42;19.90;99.90
13982;DHT22;7065;50.880;5.502;2023-07-20T09:48:09;19.90;99.90
13982;DHT22;7065;50.880;5.502;2023-07-20T09:50:43;20.00;99.90
13982;DHT22;7065;50.880;5.502;2023-07-20T09:53:14;20.00;99.90
13982;DHT22;7065;50.880;5.502;2023-07-20T09:55:41;19.90;99.90
13982;DHT22;7065;50.880;5.502;2023-07-20T09:58:08;19.80;99.90
13982;DHT22;7065;50.880;5.502;2023-07-20T10:00:36;19.70;99.90
13982;DHT22;7065;50.880;5.502;2023-07-20T10:03:04;19.70;99.90
13982;DHT22;7065;50.880;5.502;2023-07-20T10:05:33;19.70;99.90
13982;DHT22;7065;50.880;5.502;2023-07-20T10:08:02;19.80;99.90
13982;DHT22;7065;50.880;5.502;2023-07-20T10:10:29;19.90;99.90
13982;DHT22;7065;50.880;5.502;2023-07-20T10:12:57;19.90;99.90
13982;DHT22;7065;50.880;5.502;2023-07-20T10:15:33;19.90;99.90
13982;DHT22;7065;50.880;5.502;2023-07-20T10:18:12;19.90;99.90
13982;DHT22;7065;50.880;5.502;2023-07-20T10:20:40;20.00;99.90
13982;DHT22;7065;50.880;5.502;2023-07-20T10:23:09;20.00;99.90
13982;DHT22;7065;50.880;5.502;2023-07-20T10:25:35;20.10;99.90
13982;DHT22;7065;50.880;5.502;2023-07-20T10:28:05;20.20;99.90
13982;DHT22;7065;50.880;5.502;2023-07-20T10:30:32;20.20;99.90
13982;DHT22;7065;50.880;5.502;2023-07-20T10:32:59;20.20;99.90
13982;DHT22;7065;50.880;5.502;2023-07-20T10:35:29;20.20;99.90
13982;DHT22;7065;50.880;5.502;2023-07-20T10:38:04;20.30;99.90
13982;DHT22;7065;50.880;5.502;2023-07-20T10:40:34;20.40;99.90
13982;DHT22;7065;50.880;5.502;2023-07-20T10:43:05;20.50;99.90
13982;DHT22;7065;50.880;5.502;2023-07-20T10:45:49;20.60;99.90
13982;DHT22;7065;50.880;5.502;2023-07-20T10:48:18;20.60;99.90
13982;DHT22;7065;50.880;5.502;2023-07-20T10:50:45;20.70;99.90
13982;DHT22;7065;50.880;5.502;2023-07-20T10:53:14;20.90;99.90
13982;DHT22;7065;50.880;5.502;2023-07-20T10:55:41;21.00;99.90
13982;DHT22;7065;50.880;5.502;2023-07-20T10:58:12;21.00;99.90
13982;DHT22;7065;50.880;5.502;2023-07-20T11:00:56;21.00;99.90
13982;DHT22;7065;50.880;5.502;2023-07-20T11:03:34;20.90;99.90
13982;DHT22;7065;50.880;5.502;2023-07-20T11:09:11;20.90;99.90
13982;DHT22;7065;50.880;5.502;2023-07-20T11:11:39;21.00;99.90
13982;DHT22;7065;50.880;5.502;2023-07-20T11:14:06;21.10;99.90
13982;DHT22;7065;50.880;5.502;2023-07-20T11:16:35;21.10;99.90
13982;DHT22;7065;50.880;5.502;2023-07-20T11:19:02;21.30;99.90
13982;DHT22;7065;50.880;5.502;2023-07-20T11:21:28;21.40;99.90
13982;DHT22;7065;50.880;5.502;2023-07-20T11:23:53;21.40;99.90
13982;DHT22;7065;50.880;5.502;2023-07-20T11:26:20;21.40;99.90
13982;DHT22;7065;50.880;5.502;2023-07-20T11:28:50;21.40;99.90
13982;DHT22;7065;50.880;5.502;2023-07-20T11:31:20;21.40;99.90
13982;DHT22;7065;50.880;5.502;2023-07-20T11:33:46;21.40;99.90
13982;DHT22;7065;50.880;5.502;2023-07-20T11:36:12;21.30;99.90
13982;DHT22;7065;50.880;5.502;2023-07-20T11:38:42;21.50;99.90
13982;DHT22;7065;50.880;5.502;2023-07-20T11:41:09;21.70;99.90
13982;DHT22;7065;50.880;5.502;2023-07-20T11:43:35;21.80;99.90
13982;DHT22;7065;50.880;5.502;2023-07-20T11:46:05;22.00;99.90
13982;DHT22;7065;50.880;5.502;2023-07-20T11:48:30;22.20;99.90
13982;DHT22;7065;50.880;5.502;2023-07-20T11:50:56;22.40;99.90
13982;DHT22;7065;50.880;5.502;2023-07-20T11:53:22;22.50;99.90
13982;DHT22;7065;50.880;5.502;2023-07-20T11:55:49;22.60;99.90
13982;DHT22;7065;50.880;5.502;2023-07-20T11:58:15;22.90;99.90
13982;DHT22;7065;50.880;5.502;2023-07-20T12:00:44;23.10;99.90
13982;DHT22;7065;50.880;5.502;2023-07-20T12:03:09;23.00;99.90
13982;DHT22;7065;50.880;5.502;2023-07-20T12:05:38;22.90;99.90
13982;DHT22;7065;50.880;5.502;2023-07-20T12:08:04;23.10;99.90
13982;DHT22;7065;50.880;5.502;2023-07-20T12:10:29;23.10;99.90
13982;DHT22;7065;50.880;5.502;2023-07-20T12:13:01;23.20;99.90
13982;DHT22;7065;50.880;5.502;2023-07-20T12:15:29;23.30;99.90
13982;DHT22;7065;50.880;5.502;2023-07-20T12:18:01;23.40;99.90
13982;DHT22;7065;50.880;5.502;2023-07-20T12:20:34;23.40;99.90
13982;DHT22;7065;50.880;5.502;2023-07-20T12:23:09;23.40;99.90
13982;DHT22;7065;50.880;5.502;2023-07-20T12:25:42;23.30;99.90
13982;DHT22;7065;50.880;5.502;2023-07-20T12:28:16;23.50;99.90
13982;DHT22;7065;50.880;5.502;2023-07-20T12:30:43;23.40;99.90
13982;DHT22;7065;50.880;5.502;2023-07-20T12:33:10;23.30;99.90
13982;DHT22;7065;50.880;5.502;2023-07-20T12:35:37;23.40;99.90
13982;DHT22;7065;50.880;5.502;2023-07-20T12:38:04;23.50;99.90
13982;DHT22;7065;50.880;5.502;2023-07-20T12:40:31;23.70;99.90
13982;DHT22;7065;50.880;5.502;2023-07-20T12:42:57;23.80;99.90
13982;DHT22;7065;50.880;5.502;2023-07-20T12:45:23;23.90;99.90
13982;DHT22;7065;50.880;5.502;2023-07-20T12:47:49;23.90;99.90
13982;DHT22;7065;50.880;5.502;2023-07-20T12:50:14;23.90;99.90
13982;DHT22;7065;50.880;5.502;2023-07-20T12:52:40;23.90;99.90
13982;DHT22;7065;50.880;5.502;2023-07-20T12:55:08;23.90;99.90
13982;DHT22;7065;50.880;5.502;2023-07-20T12:57:37;23.80;99.90
13982;DHT22;7065;50.880;5.502;2023-07-20T13:00:05;23.90;99.90
13982;DHT22;7065;50.880;5.502;2023-07-20T13:02:32;23.90;99.90
13982;DHT22;7065;50.880;5.502;2023-07-20T13:04:58;24.10;99.90
13982;DHT22;7065;50.880;5.502;2023-07-20T13:07:31;24.20;99.90
13982;DHT22;7065;50.880;5.502;2023-07-20T13:09:58;24.10;99.90
13982;DHT22;7065;50.880;5.502;2023-07-20T13:12:29;24.20;99.90
13982;DHT22;7065;50.880;5.502;2023-07-20T13:14:55;24.40;99.90
13982;DHT22;7065;50.880;5.502;2023-07-20T13:17:22;24.50;99.90
13982;DHT22;7065;50.880;5.502;2023-07-20T13:19:48;24.50;99.90
13982;DHT22;7065;50.880;5.502;2023-07-20T13:22:14;24.50;99.90
13982;DHT22;7065;50.880;5.502;2023-07-20T13:24:45;24.60;99.90
13982;DHT22;7065;50.880;5.502;2023-07-20T13:27:12;24.60;99.90
13982;DHT22;7065;50.880;5.502;2023-07-20T13:29:38;24.70;99.90
13982;DHT22;7065;50.880;5.502;2023-07-20T13:32:03;24.80;99.90
13982;DHT22;7065;50.880;5.502;2023-07-20T13:34:31;24.90;99.90
13982;DHT22;7065;50.880;5.502;2023-07-20T13:36:57;24.90;99.90
13982;DHT22;7065;50.880;5.502;2023-07-20T13:39:23;24.80;99.90
13982;DHT22;7065;50.880;5.502;2023-07-20T13:41:50;24.80;99.90
13982;DHT22;7065;50.880;5.502;2023-07-20T13:44:15;24.90;99.90
13982;DHT22;7065;50.880;5.502;2023-07-20T13:46:41;25.10;99.90
13982;DHT22;7065;50.880;5.502;2023-07-20T13:49:06;25.20;99.90
13982;DHT22;7065;50.880;5.502;2023-07-20T13:51:32;25.20;99.90
13982;DHT22;7065;50.880;5.502;2023-07-20T13:53:58;25.10;99.90
13982;DHT22;7065;50.880;5.502;2023-07-20T13:56:24;25.30;99.90
13982;DHT22;7065;50.880;5.502;2023-07-20T13:58:50;25.40;99.90
13982;DHT22;7065;50.880;5.502;2023-07-20T14:01:16;25.30;99.90
13982;DHT22;7065;50.880;5.502;2023-07-20T14:03:43;25.20;99.90
13982;DHT22;7065;50.880;5.502;2023-07-20T14:06:09;25.20;99.90
13982;DHT22;7065;50.880;5.502;2023-07-20T14:08:35;25.30;99.90
13982;DHT22;7065;50.880;5.502;2023-07-20T14:11:00;25.40;99.90
13982;DHT22;7065;50.880;5.502;2023-07-20T14:13:26;25.40;99.90
13982;DHT22;7065;50.880;5.502;2023-07-20T14:15:52;25.20;99.90
13982;DHT22;7065;50.880;5.502;2023-07-20T14:18:17;25.20;99.90
13982;DHT22;7065;50.880;5.502;2023-07-20T14:20:43;25.30;99.90
13982;DHT22;7065;50.880;5.502;2023-07-20T14:23:09;25.40;99.90
13982;DHT22;7065;50.880;5.502;2023-07-20T14:25:35;25.50;99.90
13982;DHT22;7065;50.880;5.502;2023-07-20T14:28:01;25.70;99.90
13982;DHT22;7065;50.880;5.502;2023-07-20T14:30:27;25.90;99.90
13982;DHT22;7065;50.880;5.502;2023-07-20T14:32:52;26.00;99.90
13982;DHT22;7065;50.880;5.502;2023-07-20T14:35:18;26.00;99.90
13982;DHT22;7065;50.880;5.502;2023-07-20T14:37:44;26.00;99.90
13982;DHT22;7065;50.880;5.502;2023-07-20T14:40:13;26.00;99.90
13982;DHT22;7065;50.880;5.502;2023-07-20T14:42:39;26.10;99.90
13982;DHT22;7065;50.880;5.502;2023-07-20T14:45:05;25.90;99.90
13982;DHT22;7065;50.880;5.502;2023-07-20T14:47:31;25.90;99.90
13982;DHT22;7065;50.880;5.502;2023-07-20T14:50:01;25.90;99.90
13982;DHT22;7065;50.880;5.502;2023-07-20T14:52:28;25.80;99.90
13982;DHT22;7065;50.880;5.502;2023-07-20T14:54:54;25.80;99.90
13982;DHT22;7065;50.880;5.502;2023-07-20T14:57:20;25.90;99.90
13982;DHT22;7065;50.880;5.502;2023-07-20T14:59:49;26.00;99.90
13982;DHT22;7065;50.880;5.502;2023-07-20T15:02:15;26.10;99.90
13982;DHT22;7065;50.880;5.502;2023-07-20T15:04:51;26.10;99.90
13982;DHT22;7065;50.880;5.502;2023-07-20T15:07:18;26.30;99.90
13982;DHT22;7065;50.880;5.502;2023-07-20T15:09:44;26.40;99.90
13982;DHT22;7065;50.880;5.502;2023-07-20T15:12:10;26.50;99.90
13982;DHT22;7065;50.880;5.502;2023-07-20T15:14:40;26.60;99.90
13982;DHT22;7065;50.880;5.502;2023-07-20T15:17:08;26.80;99.90
13982;DHT22;7065;50.880;5.502;2023-07-20T15:19:42;27.00;98.70
13982;DHT22;7065;50.880;5.502;2023-07-20T15:22:08;27.20;99.40
13982;DHT22;7065;50.880;5.502;2023-07-20T15:24:34;27.20;96.90
13982;DHT22;7065;50.880;5.502;2023-07-20T15:27:00;26.80;96.70
13982;DHT22;7065;50.880;5.502;2023-07-20T15:29:26;26.60;96.40
13982;DHT22;7065;50.880;5.502;2023-07-20T15:31:52;26.50;97.70
13982;DHT22;7065;50.880;5.502;2023-07-20T15:34:21;26.70;97.40
13982;DHT22;7065;50.880;5.502;2023-07-20T15:36:46;26.60;95.10
13982;DHT22;7065;50.880;5.502;2023-07-20T15:39:12;26.40;94.60
13982;DHT22;7065;50.880;5.502;2023-07-20T15:41:37;26.10;94.90
13982;DHT22;7065;50.880;5.502;2023-07-20T15:44:03;25.80;94.90
13982;DHT22;7065;50.880;5.502;2023-07-20T15:49:07;25.20;95.40
13982;DHT22;7065;50.880;5.502;2023-07-20T15:51:36;25.00;97.60
13982;DHT22;7065;50.880;5.502;2023-07-20T15:54:04;24.80;95.50
13982;DHT22;7065;50.880;5.502;2023-07-20T15:56:34;24.70;97.90
13982;DHT22;7065;50.880;5.502;2023-07-20T15:59:00;24.50;97.80
13982;DHT22;7065;50.880;5.502;2023-07-20T16:01:25;24.40;99.90
13982;DHT22;7065;50.880;5.502;2023-07-20T16:03:51;24.30;99.90